Flight Track Log - Related Links

Times and Time Zones

All times are in EDT time to prevent confusion due to time zone crossing. See the ERR703 flight status page for this flight to view local times or setup timezone preferences in your user account.

Time Position Orientation Groundspeed Altitude Reporting Facility
EDT Latitude Longitude Course Direction KTS MPH feet Rate Location/Type
Sun 01:23:18 PM 64.7500 -148.0500 236° Southwest 180 207 5,400  Level Anchorage Center
Sun 01:24:18 PM 64.7167 -148.1333 227° Southwest 190 219 7,500 2,200 Climbing Anchorage Center
Sun 01:25:18 PM 64.6667 -148.2167 216° Southwest 190 219 9,800 2,000 Climbing Anchorage Center
Sun 01:26:18 PM 64.6333 -148.2500 203° Southwest 190 219 11,500 1,850 Climbing Anchorage Center
Sun 01:27:00 PM 64.4635 -148.0888 217° Southwest  Level Estimated
Sun 01:27:18 PM 64.5833 -148.2833 196° South 180 207 13,500  Level Anchorage Center
Sun 01:28:00 PM 64.4296 -148.2061 236° Southwest  Level FlightAware Approximate
Sun 01:28:18 PM 64.5333 -148.3333 203° Southwest 190 219 15,000  Level Anchorage Center
Sun 01:29:18 PM 64.4833 -148.3667 196° South 200 230 16,500 1,300 Climbing Anchorage Center
Sun 01:30:18 PM 64.4333 -148.4167 203° Southwest 190 219 17,600 1,289 Climbing Anchorage Center
Sun 01:31:19 PM 64.3833 -148.4500 196° South 190 219 19,100 1,240 Climbing Anchorage Center
Sun 01:32:19 PM 64.3167 -148.5000 198° South 210 242 20,100 900 Climbing Anchorage Center
Sun 01:33:19 PM 64.2667 -148.5500 203° Southwest 220 253 20,900 950 Climbing Anchorage Center
Sun 01:34:19 PM 64.2167 -148.5833 196° South 200 230 22,000 750 Climbing Anchorage Center
Sun 01:35:19 PM 64.1667 -148.6333 204° Southwest 200 230 22,400 500 Climbing Anchorage Center
Sun 01:36:19 PM 64.1000 -148.6667 192° South 210 242 23,000 300 Climbing Anchorage Center
Sun 01:37:19 PM 64.0500 -148.7167 204° Southwest 220 253 23,000  Level Anchorage Center
Sun 01:38:20 PM 63.9833 -148.7667 198° South 240 276 23,000  Level Anchorage Center
Sun 01:39:20 PM 63.9167 -148.8167 198° South 240 276 23,000  Level Anchorage Center
Sun 01:40:19 PM 63.8667 -148.8667 204° Southwest 240 276 23,000  Level Anchorage Center
Sun 01:41:19 PM 63.8000 -148.9167 198° South 230 265 23,000  Level Anchorage Center
Sun 01:42:20 PM 63.7333 -148.9667 198° South 230 265 23,000  Level Anchorage Center
Sun 01:43:20 PM 63.6667 -149.0167 198° South 240 276 23,000  Level Anchorage Center
Sun 01:44:20 PM 63.6000 -149.0667 198° South 240 276 23,000  Level Anchorage Center
Sun 01:45:20 PM 63.5500 -149.1000 197° South 240 276 23,000  Level Anchorage Center
Sun 01:46:20 PM 63.4833 -149.1500 199° South 230 265 23,000  Level Anchorage Center
Sun 01:47:20 PM 63.4167 -149.2000 199° South 240 276 23,000  Level Anchorage Center
Sun 01:48:20 PM 63.3500 -149.2500 199° South 220 253 23,000  Level Anchorage Center
Sun 01:49:20 PM 63.2833 -149.3000 199° South 240 276 23,000  Level Anchorage Center
Sun 01:50:20 PM 63.2333 -149.3500 204° Southwest 250 288 23,000  Level Anchorage Center
Sun 01:51:21 PM 63.1667 -149.4000 199° South 250 288 23,000  Level Anchorage Center
Sun 01:52:21 PM 63.1000 -149.4500 199° South 260 299 23,000  Level Anchorage Center
Sun 01:53:21 PM 63.0333 -149.5000 199° South 250 288 23,000  Level Anchorage Center
Sun 01:54:21 PM 62.9500 -149.5667 200° South 260 299 23,000  Level Anchorage Center
Sun 01:55:22 PM 62.8833 -149.6000 193° South 250 288 23,000  Level Anchorage Center
Sun 01:56:21 PM 62.8167 -149.6500 199° South 260 299 23,000  Level Anchorage Center
Sun 01:57:21 PM 62.7500 -149.7000 199° South 260 299 23,000  Level Anchorage Center
Sun 01:58:21 PM 62.7000 -149.7500 205° Southwest 230 265 23,000  Level Anchorage Center
Sun 01:59:22 PM 62.6167 -149.8000 195° South 260 299 23,000  Level Anchorage Center
Sun 02:00:22 PM 62.5500 -149.8500 199° South 270 311 23,000  Level Anchorage Center
Sun 02:01:22 PM 62.4833 -149.9000 199° South 260 299 23,000  Level Anchorage Center
Sun 02:02:22 PM 62.4000 -149.9500 196° South 260 299 23,000 -50 Level Anchorage Center
Sun 02:03:22 PM 62.3333 -150.0000 199° South 260 299 22,900  Descending Anchorage Center
Sun 02:04:22 PM 62.2667 -150.0500 199° South 260 299 23,000 50 Climbing Anchorage Center
Sun 02:05:22 PM 62.2000 -150.1000 199° South 260 299 23,000 -50 Level Anchorage Center
Sun 02:06:23 PM 62.1167 -150.1500 196° South 270 311 22,900 -645 Descending Anchorage Center
Sun 02:07:23 PM 62.0500 -150.2000 199° South 260 299 21,700 -1,650 Descending Anchorage Center
Sun 02:08:23 PM 61.9833 -150.2500 199° South 260 299 19,600 -2,100 Descending Anchorage Center
Sun 02:10:00 PM 61.8846 -150.3093 196° South  Level FlightAware Approximate
Sun 02:17:00 PM 61.4687 -150.2686 154° Southeast  Level FlightAware Approximate
Sun 02:18:00 PM 61.4110 -150.2138 167° South  Level FlightAware Approximate
Sun 02:19:00 PM 61.3533 -150.1624 149° Southeast  Level FlightAware Approximate
Sun 02:20:00 PM 61.2972 -150.1011 159° South  Level FlightAware Approximate
Sun 02:21:00 PM 61.2380 -150.0537 159° South  Level FlightAware Approximate
Sun 02:22:00 PM 61.1806 -149.9973 154° Southeast  Level FlightAware Approximate
Sun 02:23:00 PM 61.1741 -149.9982 154° Southeast  Level Estimated
Sun 02:24:00 PM 61.1741 -149.9982 154° Southeast  Level Estimated
Sun 02:25:00 PM 61.1741 -149.9982 154° Southeast  Level Estimated
Sun 02:26:00 PM 61.1741 -149.9982 154° Southeast  Level Estimated
Sun 02:27:00 PM 61.1741 -149.9982 154° Southeast  Level Estimated
Sun 02:28:00 PM 61.1741 -149.9982 154° Southeast  Level Estimated
Sun 02:29:00 PM 61.1741 -149.9982 154° Southeast  Level Estimated
Sun 02:30:00 PM 61.1741 -149.9982 154° Southeast  Level Estimated
Sun 02:31:00 PM 61.1741 -149.9982 154° Southeast  Level Estimated
Sun 02:32:00 PM 61.1741 -149.9982 154° Southeast  Level Estimated
Sun 02:33:00 PM 61.1741 -149.9982 154° Southeast  Level Estimated
Sun 02:34:00 PM 61.1741 -149.9982 154° Southeast  Level Estimated
Sun 02:35:00 PM 61.1741 -149.9982 154° Southeast  Level Estimated
Sun 02:36:00 PM 61.1741 -149.9982 154° Southeast  Level Estimated
Sun 02:37:00 PM 61.1741 -149.9982 154° Southeast  Level Estimated
Sun 02:38:00 PM 61.1741 -149.9982 154° Southeast  Level Estimated
Sun 02:39:00 PM 61.1741 -149.9982 154° Southeast  Level Estimated

Login

Don't have an account? Register now (free) for customized features, flight alerts, and more!